sensor_id;sensor_type;location;lat;lon;timestamp;P1;durP1;ratioP1;P2;durP2;ratioP2
52866;SDS011;38739;53.324;6.862;2023-06-05T00:01:15;7.68;;;3.83;;
52866;SDS011;38739;53.324;6.862;2023-06-05T00:03:42;6.43;;;4.18;;
52866;SDS011;38739;53.324;6.862;2023-06-05T00:06:08;10.75;;;4.40;;
52866;SDS011;38739;53.324;6.862;2023-06-05T00:08:35;6.63;;;3.70;;
52866;SDS011;38739;53.324;6.862;2023-06-05T00:11:01;6.72;;;3.58;;
52866;SDS011;38739;53.324;6.862;2023-06-05T00:13:26;6.63;;;3.70;;
52866;SDS011;38739;53.324;6.862;2023-06-05T00:15:52;6.18;;;3.70;;
52866;SDS011;38739;53.324;6.862;2023-06-05T00:18:18;5.63;;;3.60;;
52866;SDS011;38739;53.324;6.862;2023-06-05T00:20:44;6.43;;;3.60;;
52866;SDS011;38739;53.324;6.862;2023-06-05T00:23:10;6.32;;;3.47;;
52866;SDS011;38739;53.324;6.862;2023-06-05T00:25:38;7.07;;;3.10;;
52866;SDS011;38739;53.324;6.862;2023-06-05T00:28:04;5.63;;;3.40;;
52866;SDS011;38739;53.324;6.862;2023-06-05T00:30:30;4.80;;;3.20;;
52866;SDS011;38739;53.324;6.862;2023-06-05T00:32:56;5.32;;;3.25;;
52866;SDS011;38739;53.324;6.862;2023-06-05T00:35:22;4.80;;;3.47;;
52866;SDS011;38739;53.324;6.862;2023-06-05T00:37:47;7.55;;;3.70;;
52866;SDS011;38739;53.324;6.862;2023-06-05T00:40:13;4.72;;;3.33;;
52866;SDS011;38739;53.324;6.862;2023-06-05T00:42:39;4.35;;;3.10;;
52866;SDS011;38739;53.324;6.862;2023-06-05T00:45:05;5.60;;;3.60;;
52866;SDS011;38739;53.324;6.862;2023-06-05T00:47:31;4.90;;;3.30;;
52866;SDS011;38739;53.324;6.862;2023-06-05T00:49:58;5.10;;;3.38;;
52866;SDS011;38739;53.324;6.862;2023-06-05T00:52:24;5.07;;;3.20;;
52866;SDS011;38739;53.324;6.862;2023-06-05T00:54:51;5.28;;;3.10;;
52866;SDS011;38739;53.324;6.862;2023-06-05T00:57:17;5.93;;;3.50;;
52866;SDS011;38739;53.324;6.862;2023-06-05T00:59:43;5.22;;;3.00;;
52866;SDS011;38739;53.324;6.862;2023-06-05T01:02:10;4.65;;;3.20;;
52866;SDS011;38739;53.324;6.862;2023-06-05T01:04:39;4.57;;;3.10;;
52866;SDS011;38739;53.324;6.862;2023-06-05T01:07:11;3.65;;;3.00;;
52866;SDS011;38739;53.324;6.862;2023-06-05T01:09:39;5.60;;;3.00;;
52866;SDS011;38739;53.324;6.862;2023-06-05T01:14:52;8.18;;;3.15;;
52866;SDS011;38739;53.324;6.862;2023-06-05T01:17:24;4.65;;;2.95;;
52866;SDS011;38739;53.324;6.862;2023-06-05T01:19:54;5.13;;;2.80;;
52866;SDS011;38739;53.324;6.862;2023-06-05T01:22:20;5.20;;;2.92;;
52866;SDS011;38739;53.324;6.862;2023-06-05T01:24:46;5.35;;;2.75;;
52866;SDS011;38739;53.324;6.862;2023-06-05T01:27:14;8.60;;;3.20;;
52866;SDS011;38739;53.324;6.862;2023-06-05T01:37:13;4.45;;;2.70;;
52866;SDS011;38739;53.324;6.862;2023-06-05T01:39:44;6.57;;;3.00;;
52866;SDS011;38739;53.324;6.862;2023-06-05T01:42:12;5.20;;;2.92;;
52866;SDS011;38739;53.324;6.862;2023-06-05T01:44:39;3.95;;;2.90;;
52866;SDS011;38739;53.324;6.862;2023-06-05T01:47:07;4.35;;;3.10;;
52866;SDS011;38739;53.324;6.862;2023-06-05T01:49:33;8.10;;;3.20;;
52866;SDS011;38739;53.324;6.862;2023-06-05T01:51:59;6.05;;;2.92;;
52866;SDS011;38739;53.324;6.862;2023-06-05T01:54:25;4.63;;;2.92;;
52866;SDS011;38739;53.324;6.862;2023-06-05T01:56:51;4.32;;;3.15;;
52866;SDS011;38739;53.324;6.862;2023-06-05T01:59:18;3.05;;;2.67;;
52866;SDS011;38739;53.324;6.862;2023-06-05T02:01:44;4.38;;;2.78;;
52866;SDS011;38739;53.324;6.862;2023-06-05T02:04:10;4.10;;;2.78;;
52866;SDS011;38739;53.324;6.862;2023-06-05T02:06:41;4.80;;;2.70;;
52866;SDS011;38739;53.324;6.862;2023-06-05T02:09:08;3.65;;;2.70;;
52866;SDS011;38739;53.324;6.862;2023-06-05T02:11:35;5.05;;;3.08;;
52866;SDS011;38739;53.324;6.862;2023-06-05T02:14:03;3.45;;;2.65;;
52866;SDS011;38739;53.324;6.862;2023-06-05T02:16:30;4.03;;;3.00;;
52866;SDS011;38739;53.324;6.862;2023-06-05T02:18:56;5.32;;;2.90;;
52866;SDS011;38739;53.324;6.862;2023-06-05T02:21:28;4.88;;;2.80;;
52866;SDS011;38739;53.324;6.862;2023-06-05T02:23:58;4.88;;;2.95;;
52866;SDS011;38739;53.324;6.862;2023-06-05T02:26:27;3.65;;;2.97;;
52866;SDS011;38739;53.324;6.862;2023-06-05T02:28:53;3.78;;;2.78;;
52866;SDS011;38739;53.324;6.862;2023-06-05T02:31:22;5.57;;;3.00;;
52866;SDS011;38739;53.324;6.862;2023-06-05T02:33:54;5.90;;;2.90;;
52866;SDS011;38739;53.324;6.862;2023-06-05T02:36:23;5.60;;;3.10;;
52866;SDS011;38739;53.324;6.862;2023-06-05T02:38:50;4.85;;;2.78;;
52866;SDS011;38739;53.324;6.862;2023-06-05T02:41:17;3.50;;;2.70;;
52866;SDS011;38739;53.324;6.862;2023-06-05T02:43:43;4.50;;;2.80;;
52866;SDS011;38739;53.324;6.862;2023-06-05T02:46:10;5.25;;;3.00;;
52866;SDS011;38739;53.324;6.862;2023-06-05T02:48:36;4.55;;;2.63;;
52866;SDS011;38739;53.324;6.862;2023-06-05T02:51:02;5.55;;;2.72;;
52866;SDS011;38739;53.324;6.862;2023-06-05T02:53:28;3.72;;;2.60;;
52866;SDS011;38739;53.324;6.862;2023-06-05T02:55:54;4.97;;;3.00;;
52866;SDS011;38739;53.324;6.862;2023-06-05T02:58:20;3.80;;;2.88;;
52866;SDS011;38739;53.324;6.862;2023-06-05T03:00:47;3.95;;;3.30;;
52866;SDS011;38739;53.324;6.862;2023-06-05T03:03:15;4.15;;;2.88;;
52866;SDS011;38739;53.324;6.862;2023-06-05T03:05:42;4.55;;;3.05;;
52866;SDS011;38739;53.324;6.862;2023-06-05T03:08:09;6.05;;;3.83;;
52866;SDS011;38739;53.324;6.862;2023-06-05T03:10:35;6.32;;;3.65;;
52866;SDS011;38739;53.324;6.862;2023-06-05T03:13:01;5.30;;;3.17;;
52866;SDS011;38739;53.324;6.862;2023-06-05T03:15:27;10.18;;;3.20;;
52866;SDS011;38739;53.324;6.862;2023-06-05T03:17:53;4.45;;;2.90;;
52866;SDS011;38739;53.324;6.862;2023-06-05T03:20:19;5.57;;;3.30;;
52866;SDS011;38739;53.324;6.862;2023-06-05T03:22:44;4.70;;;2.80;;
52866;SDS011;38739;53.324;6.862;2023-06-05T03:25:10;4.03;;;3.25;;
52866;SDS011;38739;53.324;6.862;2023-06-05T03:27:36;4.20;;;2.80;;
52866;SDS011;38739;53.324;6.862;2023-06-05T03:30:02;5.25;;;2.83;;
52866;SDS011;38739;53.324;6.862;2023-06-05T03:32:29;3.67;;;2.75;;
52866;SDS011;38739;53.324;6.862;2023-06-05T03:34:55;4.28;;;2.90;;
52866;SDS011;38739;53.324;6.862;2023-06-05T03:37:21;5.03;;;3.10;;
52866;SDS011;38739;53.324;6.862;2023-06-05T03:39:46;6.93;;;3.80;;
52866;SDS011;38739;53.324;6.862;2023-06-05T03:42:12;4.55;;;3.13;;
52866;SDS011;38739;53.324;6.862;2023-06-05T03:44:38;4.53;;;3.15;;
52866;SDS011;38739;53.324;6.862;2023-06-05T03:47:03;4.78;;;3.15;;
52866;SDS011;38739;53.324;6.862;2023-06-05T03:49:31;4.53;;;3.17;;
52866;SDS011;38739;53.324;6.862;2023-06-05T03:51:57;5.22;;;3.40;;
52866;SDS011;38739;53.324;6.862;2023-06-05T03:54:29;3.83;;;3.15;;
52866;SDS011;38739;53.324;6.862;2023-06-05T03:56:58;3.50;;;3.00;;
52866;SDS011;38739;53.324;6.862;2023-06-05T03:59:25;5.20;;;3.40;;
52866;SDS011;38739;53.324;6.862;2023-06-05T04:01:53;4.25;;;3.33;;
52866;SDS011;38739;53.324;6.862;2023-06-05T04:04:20;5.38;;;2.97;;
52866;SDS011;38739;53.324;6.862;2023-06-05T04:06:46;4.30;;;2.95;;
52866;SDS011;38739;53.324;6.862;2023-06-05T04:09:12;4.95;;;3.00;;
52866;SDS011;38739;53.324;6.862;2023-06-05T04:11:39;4.50;;;2.80;;
52866;SDS011;38739;53.324;6.862;2023-06-05T04:14:05;3.58;;;2.83;;
52866;SDS011;38739;53.324;6.862;2023-06-05T04:16:31;5.03;;;2.75;;
52866;SDS011;38739;53.324;6.862;2023-06-05T04:18:58;6.55;;;2.97;;
52866;SDS011;38739;53.324;6.862;2023-06-05T04:21:24;6.47;;;3.40;;
52866;SDS011;38739;53.324;6.862;2023-06-05T04:23:50;6.75;;;3.47;;
52866;SDS011;38739;53.324;6.862;2023-06-05T04:26:16;4.85;;;2.88;;
52866;SDS011;38739;53.324;6.862;2023-06-05T04:28:42;4.95;;;2.85;;
52866;SDS011;38739;53.324;6.862;2023-06-05T04:31:09;4.72;;;2.85;;
52866;SDS011;38739;53.324;6.862;2023-06-05T04:33:35;4.50;;;2.70;;
52866;SDS011;38739;53.324;6.862;2023-06-05T04:36:00;4.22;;;2.92;;
52866;SDS011;38739;53.324;6.862;2023-06-05T04:38:26;3.45;;;2.60;;
52866;SDS011;38739;53.324;6.862;2023-06-05T04:40:53;3.20;;;2.63;;
52866;SDS011;38739;53.324;6.862;2023-06-05T04:43:18;4.13;;;2.80;;
52866;SDS011;38739;53.324;6.862;2023-06-05T04:45:44;3.28;;;2.67;;
52866;SDS011;38739;53.324;6.862;2023-06-05T04:48:11;4.55;;;2.60;;
52866;SDS011;38739;53.324;6.862;2023-06-05T04:50:36;2.97;;;2.60;;
52866;SDS011;38739;53.324;6.862;2023-06-05T04:53:02;4.07;;;2.60;;
52866;SDS011;38739;53.324;6.862;2023-06-05T04:55:28;3.72;;;2.30;;
52866;SDS011;38739;53.324;6.862;2023-06-05T04:57:54;5.25;;;3.05;;
52866;SDS011;38739;53.324;6.862;2023-06-05T05:00:21;4.95;;;2.90;;
52866;SDS011;38739;53.324;6.862;2023-06-05T05:02:47;5.20;;;2.42;;
52866;SDS011;38739;53.324;6.862;2023-06-05T05:05:14;3.30;;;2.63;;
52866;SDS011;38739;53.324;6.862;2023-06-05T05:07:41;6.53;;;2.55;;
52866;SDS011;38739;53.324;6.862;2023-06-05T05:10:08;3.03;;;2.15;;
52866;SDS011;38739;53.324;6.862;2023-06-05T05:12:35;4.20;;;2.47;;
52866;SDS011;38739;53.324;6.862;2023-06-05T05:15:01;3.33;;;2.33;;
52866;SDS011;38739;53.324;6.862;2023-06-05T05:17:28;4.07;;;2.17;;
52866;SDS011;38739;53.324;6.862;2023-06-05T05:19:54;4.95;;;2.50;;
52866;SDS011;38739;53.324;6.862;2023-06-05T05:22:21;2.83;;;2.22;;
52866;SDS011;38739;53.324;6.862;2023-06-05T05:24:46;3.53;;;2.15;;
52866;SDS011;38739;53.324;6.862;2023-06-05T05:27:12;3.67;;;2.78;;
52866;SDS011;38739;53.324;6.862;2023-06-05T05:29:38;4.07;;;2.42;;
52866;SDS011;38739;53.324;6.862;2023-06-05T05:32:03;3.95;;;2.50;;
52866;SDS011;38739;53.324;6.862;2023-06-05T05:34:30;3.80;;;2.30;;
52866;SDS011;38739;53.324;6.862;2023-06-05T05:36:56;5.55;;;2.63;;
52866;SDS011;38739;53.324;6.862;2023-06-05T05:39:22;4.68;;;2.50;;
52866;SDS011;38739;53.324;6.862;2023-06-05T05:41:47;5.00;;;2.58;;
52866;SDS011;38739;53.324;6.862;2023-06-05T05:44:13;2.80;;;2.40;;
52866;SDS011;38739;53.324;6.862;2023-06-05T05:46:40;3.28;;;2.20;;
52866;SDS011;38739;53.324;6.862;2023-06-05T05:49:06;4.20;;;2.45;;
52866;SDS011;38739;53.324;6.862;2023-06-05T05:51:31;4.07;;;2.22;;
52866;SDS011;38739;53.324;6.862;2023-06-05T05:53:58;3.72;;;2.20;;
52866;SDS011;38739;53.324;6.862;2023-06-05T05:56:24;3.80;;;2.13;;
52866;SDS011;38739;53.324;6.862;2023-06-05T05:58:49;3.20;;;2.30;;
52866;SDS011;38739;53.324;6.862;2023-06-05T06:01:15;3.35;;;2.33;;
52866;SDS011;38739;53.324;6.862;2023-06-05T06:03:44;3.80;;;2.40;;
52866;SDS011;38739;53.324;6.862;2023-06-05T06:06:10;2.92;;;2.10;;
52866;SDS011;38739;53.324;6.862;2023-06-05T06:08:37;2.92;;;2.22;;
52866;SDS011;38739;53.324;6.862;2023-06-05T06:11:03;2.45;;;2.10;;
52866;SDS011;38739;53.324;6.862;2023-06-05T06:13:31;2.58;;;1.75;;
52866;SDS011;38739;53.324;6.862;2023-06-05T06:15:58;2.80;;;1.80;;
52866;SDS011;38739;53.324;6.862;2023-06-05T06:18:25;4.03;;;2.08;;
52866;SDS011;38739;53.324;6.862;2023-06-05T06:20:50;2.58;;;1.98;;
52866;SDS011;38739;53.324;6.862;2023-06-05T06:23:16;3.78;;;2.20;;
52866;SDS011;38739;53.324;6.862;2023-06-05T06:25:42;2.42;;;2.10;;
52866;SDS011;38739;53.324;6.862;2023-06-05T06:28:08;3.20;;;1.70;;
52866;SDS011;38739;53.324;6.862;2023-06-05T06:30:34;2.90;;;2.03;;
52866;SDS011;38739;53.324;6.862;2023-06-05T06:33:01;2.78;;;1.92;;
52866;SDS011;38739;53.324;6.862;2023-06-05T06:35:29;2.83;;;1.90;;
52866;SDS011;38739;53.324;6.862;2023-06-05T06:37:57;3.88;;;2.08;;
52866;SDS011;38739;53.324;6.862;2023-06-05T06:40:23;3.45;;;2.20;;
52866;SDS011;38739;53.324;6.862;2023-06-05T06:42:49;3.75;;;2.25;;
52866;SDS011;38739;53.324;6.862;2023-06-05T06:45:18;4.32;;;2.20;;
52866;SDS011;38739;53.324;6.862;2023-06-05T06:47:44;4.88;;;2.13;;
52866;SDS011;38739;53.324;6.862;2023-06-05T06:50:09;4.28;;;2.03;;
52866;SDS011;38739;53.324;6.862;2023-06-05T06:52:35;3.17;;;2.28;;
52866;SDS011;38739;53.324;6.862;2023-06-05T06:55:01;2.55;;;2.05;;
52866;SDS011;38739;53.324;6.862;2023-06-05T06:57:27;4.30;;;2.60;;
52866;SDS011;38739;53.324;6.862;2023-06-05T06:59:53;4.32;;;2.20;;
52866;SDS011;38739;53.324;6.862;2023-06-05T07:02:19;3.17;;;2.08;;
52866;SDS011;38739;53.324;6.862;2023-06-05T07:04:46;3.60;;;2.10;;
52866;SDS011;38739;53.324;6.862;2023-06-05T07:07:13;3.55;;;2.38;;
52866;SDS011;38739;53.324;6.862;2023-06-05T07:09:40;3.38;;;1.90;;
52866;SDS011;38739;53.324;6.862;2023-06-05T07:12:13;2.50;;;2.08;;
52866;SDS011;38739;53.324;6.862;2023-06-05T07:14:41;3.28;;;2.03;;
52866;SDS011;38739;53.324;6.862;2023-06-05T07:17:07;4.35;;;2.10;;
52866;SDS011;38739;53.324;6.862;2023-06-05T07:19:33;2.75;;;1.90;;
52866;SDS011;38739;53.324;6.862;2023-06-05T07:22:01;3.35;;;2.28;;
52866;SDS011;38739;53.324;6.862;2023-06-05T07:24:29;2.35;;;1.90;;
52866;SDS011;38739;53.324;6.862;2023-06-05T07:26:58;4.07;;;1.98;;
52866;SDS011;38739;53.324;6.862;2023-06-05T07:29:25;2.17;;;1.80;;
52866;SDS011;38739;53.324;6.862;2023-06-05T07:31:52;2.80;;;2.22;;
52866;SDS011;38739;53.324;6.862;2023-06-05T07:34:19;2.80;;;1.92;;
52866;SDS011;38739;53.324;6.862;2023-06-05T07:36:46;3.10;;;1.90;;
52866;SDS011;38739;53.324;6.862;2023-06-05T07:39:16;2.42;;;1.80;;
52866;SDS011;38739;53.324;6.862;2023-06-05T07:41:43;2.38;;;1.98;;
52866;SDS011;38739;53.324;6.862;2023-06-05T07:44:09;2.17;;;1.73;;
52866;SDS011;38739;53.324;6.862;2023-06-05T07:46:36;3.67;;;2.10;;
52866;SDS011;38739;53.324;6.862;2023-06-05T07:49:02;3.78;;;2.10;;
52866;SDS011;38739;53.324;6.862;2023-06-05T07:51:27;3.13;;;2.10;;
52866;SDS011;38739;53.324;6.862;2023-06-05T07:53:53;3.30;;;2.00;;
52866;SDS011;38739;53.324;6.862;2023-06-05T07:56:19;3.20;;;1.80;;
52866;SDS011;38739;53.324;6.862;2023-06-05T07:58:49;3.33;;;1.88;;
52866;SDS011;38739;53.324;6.862;2023-06-05T08:01:14;2.42;;;1.83;;
52866;SDS011;38739;53.324;6.862;2023-06-05T08:03:40;5.55;;;2.10;;
52866;SDS011;38739;53.324;6.862;2023-06-05T08:06:09;2.42;;;1.80;;
52866;SDS011;38739;53.324;6.862;2023-06-05T08:08:35;2.85;;;2.00;;
52866;SDS011;38739;53.324;6.862;2023-06-05T08:11:01;4.35;;;1.90;;
52866;SDS011;38739;53.324;6.862;2023-06-05T08:13:26;2.80;;;1.73;;
52866;SDS011;38739;53.324;6.862;2023-06-05T08:15:52;2.15;;;1.80;;
52866;SDS011;38739;53.324;6.862;2023-06-05T08:18:18;2.90;;;2.17;;
52866;SDS011;38739;53.324;6.862;2023-06-05T08:20:43;2.50;;;1.75;;
52866;SDS011;38739;53.324;6.862;2023-06-05T08:23:09;2.63;;;1.75;;
52866;SDS011;38739;53.324;6.862;2023-06-05T08:25:35;2.95;;;2.03;;
52866;SDS011;38739;53.324;6.862;2023-06-05T08:28:01;2.67;;;1.70;;
52866;SDS011;38739;53.324;6.862;2023-06-05T08:30:26;2.40;;;1.73;;
52866;SDS011;38739;53.324;6.862;2023-06-05T08:32:52;3.45;;;1.77;;
52866;SDS011;38739;53.324;6.862;2023-06-05T08:35:18;2.42;;;1.67;;
52866;SDS011;38739;53.324;6.862;2023-06-05T08:37:43;2.53;;;2.10;;
52866;SDS011;38739;53.324;6.862;2023-06-05T08:40:09;2.80;;;1.80;;
52866;SDS011;38739;53.324;6.862;2023-06-05T08:42:37;3.30;;;2.35;;
52866;SDS011;38739;53.324;6.862;2023-06-05T08:45:07;3.13;;;2.00;;
52866;SDS011;38739;53.324;6.862;2023-06-05T08:47:35;3.53;;;2.20;;
52866;SDS011;38739;53.324;6.862;2023-06-05T08:50:07;3.17;;;2.08;;
52866;SDS011;38739;53.324;6.862;2023-06-05T08:52:34;3.83;;;2.05;;
52866;SDS011;38739;53.324;6.862;2023-06-05T08:55:03;3.20;;;1.80;;
52866;SDS011;38739;53.324;6.862;2023-06-05T08:57:30;3.17;;;2.00;;
52866;SDS011;38739;53.324;6.862;2023-06-05T08:59:58;3.20;;;1.88;;
52866;SDS011;38739;53.324;6.862;2023-06-05T09:02:25;3.63;;;2.00;;
52866;SDS011;38739;53.324;6.862;2023-06-05T09:04:51;3.00;;;1.90;;
52866;SDS011;38739;53.324;6.862;2023-06-05T09:07:17;3.72;;;2.13;;
52866;SDS011;38739;53.324;6.862;2023-06-05T09:09:43;2.20;;;2.00;;
52866;SDS011;38739;53.324;6.862;2023-06-05T09:12:09;4.70;;;1.90;;
52866;SDS011;38739;53.324;6.862;2023-06-05T09:14:35;3.72;;;2.15;;
52866;SDS011;38739;53.324;6.862;2023-06-05T09:17:01;2.70;;;1.85;;
52866;SDS011;38739;53.324;6.862;2023-06-05T09:19:40;3.80;;;2.10;;
52866;SDS011;38739;53.324;6.862;2023-06-05T09:22:11;2.42;;;2.08;;
52866;SDS011;38739;53.324;6.862;2023-06-05T09:24:41;3.08;;;1.90;;
52866;SDS011;38739;53.324;6.862;2023-06-05T09:27:08;2.53;;;1.77;;
52866;SDS011;38739;53.324;6.862;2023-06-05T09:29:36;3.25;;;1.88;;
52866;SDS011;38739;53.324;6.862;2023-06-05T09:34:35;3.22;;;1.80;;
52866;SDS011;38739;53.324;6.862;2023-06-05T09:37:03;3.72;;;2.13;;
52866;SDS011;38739;53.324;6.862;2023-06-05T09:39:31;3.70;;;2.05;;
52866;SDS011;38739;53.324;6.862;2023-06-05T09:41:58;3.92;;;1.90;;
52866;SDS011;38739;53.324;6.862;2023-06-05T09:44:25;4.18;;;1.88;;
52866;SDS011;38739;53.324;6.862;2023-06-05T09:46:58;2.17;;;1.63;;
52866;SDS011;38739;53.324;6.862;2023-06-05T09:52:11;3.97;;;1.85;;
52866;SDS011;38739;53.324;6.862;2023-06-05T09:54:39;4.43;;;1.90;;
52866;SDS011;38739;53.324;6.862;2023-06-05T09:57:07;5.05;;;1.88;;
52866;SDS011;38739;53.324;6.862;2023-06-05T10:02:21;2.50;;;2.08;;
52866;SDS011;38739;53.324;6.862;2023-06-05T10:04:54;3.20;;;1.95;;
52866;SDS011;38739;53.324;6.862;2023-06-05T10:07:21;4.50;;;1.90;;
52866;SDS011;38739;53.324;6.862;2023-06-05T10:09:49;4.47;;;1.80;;
52866;SDS011;38739;53.324;6.862;2023-06-05T10:12:15;3.97;;;1.77;;
52866;SDS011;38739;53.324;6.862;2023-06-05T10:14:42;2.10;;;1.50;;
52866;SDS011;38739;53.324;6.862;2023-06-05T10:17:11;3.63;;;1.98;;
52866;SDS011;38739;53.324;6.862;2023-06-05T10:19:41;2.80;;;1.90;;
52866;SDS011;38739;53.324;6.862;2023-06-05T10:22:09;3.05;;;1.80;;
52866;SDS011;38739;53.324;6.862;2023-06-05T10:24:37;3.15;;;2.00;;
52866;SDS011;38739;53.324;6.862;2023-06-05T10:38:26;3.33;;;1.90;;
52866;SDS011;38739;53.324;6.862;2023-06-05T10:40:56;5.38;;;2.10;;
52866;SDS011;38739;53.324;6.862;2023-06-05T10:45:53;3.58;;;1.90;;
52866;SDS011;38739;53.324;6.862;2023-06-05T10:48:19;3.67;;;1.90;;
52866;SDS011;38739;53.324;6.862;2023-06-05T10:50:45;2.80;;;1.70;;
52866;SDS011;38739;53.324;6.862;2023-06-05T10:59:18;3.67;;;1.98;;
52866;SDS011;38739;53.324;6.862;2023-06-05T11:07:19;2.33;;;1.80;;
52866;SDS011;38739;53.324;6.862;2023-06-05T11:13:12;2.90;;;1.98;;
52866;SDS011;38739;53.324;6.862;2023-06-05T11:15:16;2.72;;;1.60;;
52866;SDS011;38739;53.324;6.862;2023-06-05T11:20:58;2.15;;;1.70;;
52866;SDS011;38739;53.324;6.862;2023-06-05T11:23:25;2.22;;;1.63;;
52866;SDS011;38739;53.324;6.862;2023-06-05T11:25:53;1.98;;;1.77;;
52866;SDS011;38739;53.324;6.862;2023-06-05T11:31:29;2.28;;;1.70;;
52866;SDS011;38739;53.324;6.862;2023-06-05T11:33:56;2.25;;;1.90;;
52866;SDS011;38739;53.324;6.862;2023-06-05T11:36:22;5.10;;;1.65;;
52866;SDS011;38739;53.324;6.862;2023-06-05T11:38:53;5.53;;;2.22;;
52866;SDS011;38739;53.324;6.862;2023-06-05T11:41:21;2.58;;;1.90;;
52866;SDS011;38739;53.324;6.862;2023-06-05T11:43:46;2.88;;;1.80;;
52866;SDS011;38739;53.324;6.862;2023-06-05T11:46:12;2.40;;;1.77;;
52866;SDS011;38739;53.324;6.862;2023-06-05T11:48:45;2.92;;;1.90;;
52866;SDS011;38739;53.324;6.862;2023-06-05T11:51:11;5.03;;;1.88;;
52866;SDS011;38739;53.324;6.862;2023-06-05T11:53:42;2.63;;;1.90;;
52866;SDS011;38739;53.324;6.862;2023-06-05T11:56:14;2.85;;;1.90;;
52866;SDS011;38739;53.324;6.862;2023-06-05T11:58:42;3.63;;;1.90;;
52866;SDS011;38739;53.324;6.862;2023-06-05T12:01:09;2.42;;;1.75;;
52866;SDS011;38739;53.324;6.862;2023-06-05T12:03:49;2.55;;;1.67;;
52866;SDS011;38739;53.324;6.862;2023-06-05T12:06:27;2.08;;;1.52;;
52866;SDS011;38739;53.324;6.862;2023-06-05T12:08:56;3.35;;;1.90;;
52866;SDS011;38739;53.324;6.862;2023-06-05T12:11:34;3.08;;;1.80;;
52866;SDS011;38739;53.324;6.862;2023-06-05T12:14:00;2.70;;;1.60;;
52866;SDS011;38739;53.324;6.862;2023-06-05T12:16:44;2.47;;;1.75;;
52866;SDS011;38739;53.324;6.862;2023-06-05T12:19:17;3.05;;;2.10;;
52866;SDS011;38739;53.324;6.862;2023-06-05T12:21:44;2.80;;;1.88;;
52866;SDS011;38739;53.324;6.862;2023-06-05T12:24:11;2.40;;;1.80;;
52866;SDS011;38739;53.324;6.862;2023-06-05T12:26:47;4.07;;;2.13;;
52866;SDS011;38739;53.324;6.862;2023-06-05T12:29:20;2.75;;;2.28;;
52866;SDS011;38739;53.324;6.862;2023-06-05T12:31:47;5.05;;;1.85;;
52866;SDS011;38739;53.324;6.862;2023-06-05T12:34:13;4.38;;;2.75;;
52866;SDS011;38739;53.324;6.862;2023-06-05T12:36:41;5.60;;;2.70;;
52866;SDS011;38739;53.324;6.862;2023-06-05T12:39:12;4.40;;;2.30;;
52866;SDS011;38739;53.324;6.862;2023-06-05T12:41:42;4.25;;;2.50;;
52866;SDS011;38739;53.324;6.862;2023-06-05T12:44:09;4.38;;;2.70;;
52866;SDS011;38739;53.324;6.862;2023-06-05T12:46:35;4.43;;;2.60;;
52866;SDS011;38739;53.324;6.862;2023-06-05T12:49:03;3.88;;;2.70;;
52866;SDS011;38739;53.324;6.862;2023-06-05T12:51:30;4.28;;;3.10;;
52866;SDS011;38739;53.324;6.862;2023-06-05T12:53:56;3.70;;;2.50;;
52866;SDS011;38739;53.324;6.862;2023-06-05T12:56:23;4.32;;;2.90;;
52866;SDS011;38739;53.324;6.862;2023-06-05T12:58:54;5.07;;;2.70;;
52866;SDS011;38739;53.324;6.862;2023-06-05T13:01:21;3.15;;;2.50;;
52866;SDS011;38739;53.324;6.862;2023-06-05T13:03:47;3.83;;;2.55;;
52866;SDS011;38739;53.324;6.862;2023-06-05T13:06:13;3.38;;;2.45;;
52866;SDS011;38739;53.324;6.862;2023-06-05T13:08:38;3.50;;;2.05;;
52866;SDS011;38739;53.324;6.862;2023-06-05T13:11:04;3.35;;;2.60;;
52866;SDS011;38739;53.324;6.862;2023-06-05T13:13:30;3.72;;;2.00;;
52866;SDS011;38739;53.324;6.862;2023-06-05T13:15:57;2.88;;;2.10;;
52866;SDS011;38739;53.324;6.862;2023-06-05T13:18:24;2.92;;;2.10;;
52866;SDS011;38739;53.324;6.862;2023-06-05T13:20:49;4.97;;;2.50;;
52866;SDS011;38739;53.324;6.862;2023-06-05T13:23:15;3.78;;;1.83;;
52866;SDS011;38739;53.324;6.862;2023-06-05T13:25:41;4.28;;;2.17;;
52866;SDS011;38739;53.324;6.862;2023-06-05T13:28:06;3.20;;;2.10;;
52866;SDS011;38739;53.324;6.862;2023-06-05T13:30:32;5.93;;;2.53;;
52866;SDS011;38739;53.324;6.862;2023-06-05T13:32:59;3.72;;;2.08;;
52866;SDS011;38739;53.324;6.862;2023-06-05T13:35:25;4.32;;;2.00;;
52866;SDS011;38739;53.324;6.862;2023-06-05T13:37:50;4.43;;;2.53;;
52866;SDS011;38739;53.324;6.862;2023-06-05T13:40:17;3.80;;;2.60;;
52866;SDS011;38739;53.324;6.862;2023-06-05T13:42:43;3.20;;;1.90;;
52866;SDS011;38739;53.324;6.862;2023-06-05T13:45:09;3.55;;;2.10;;
52866;SDS011;38739;53.324;6.862;2023-06-05T13:47:35;4.03;;;2.33;;
52866;SDS011;38739;53.324;6.862;2023-06-05T13:50:01;6.07;;;2.92;;
52866;SDS011;38739;53.324;6.862;2023-06-05T13:52:28;5.30;;;2.50;;
52866;SDS011;38739;53.324;6.862;2023-06-05T13:54:54;3.42;;;2.30;;
52866;SDS011;38739;53.324;6.862;2023-06-05T13:57:19;5.05;;;2.53;;
52866;SDS011;38739;53.324;6.862;2023-06-05T13:59:45;2.83;;;2.00;;
52866;SDS011;38739;53.324;6.862;2023-06-05T14:02:11;3.47;;;2.15;;
52866;SDS011;38739;53.324;6.862;2023-06-05T14:04:37;4.82;;;2.30;;
52866;SDS011;38739;53.324;6.862;2023-06-05T14:07:03;3.38;;;2.33;;
52866;SDS011;38739;53.324;6.862;2023-06-05T14:09:29;5.07;;;2.40;;
52866;SDS011;38739;53.324;6.862;2023-06-05T14:11:55;3.22;;;2.35;;
52866;SDS011;38739;53.324;6.862;2023-06-05T14:14:25;4.88;;;2.33;;
52866;SDS011;38739;53.324;6.862;2023-06-05T14:16:50;5.80;;;2.47;;
52866;SDS011;38739;53.324;6.862;2023-06-05T14:19:17;4.03;;;2.30;;
52866;SDS011;38739;53.324;6.862;2023-06-05T14:21:43;5.32;;;2.53;;
52866;SDS011;38739;53.324;6.862;2023-06-05T14:24:09;4.03;;;2.38;;
52866;SDS011;38739;53.324;6.862;2023-06-05T14:26:35;5.38;;;2.60;;
52866;SDS011;38739;53.324;6.862;2023-06-05T14:29:02;4.25;;;2.83;;
52866;SDS011;38739;53.324;6.862;2023-06-05T14:31:28;3.85;;;2.80;;
52866;SDS011;38739;53.324;6.862;2023-06-05T14:33:54;4.00;;;2.80;;
52866;SDS011;38739;53.324;6.862;2023-06-05T14:36:20;5.65;;;2.85;;
52866;SDS011;38739;53.324;6.862;2023-06-05T14:38:46;6.25;;;3.30;;
52866;SDS011;38739;53.324;6.862;2023-06-05T14:41:11;6.07;;;2.90;;
52866;SDS011;38739;53.324;6.862;2023-06-05T14:43:37;6.43;;;2.85;;
52866;SDS011;38739;53.324;6.862;2023-06-05T14:46:03;3.35;;;2.42;;
52866;SDS011;38739;53.324;6.862;2023-06-05T14:48:29;6.10;;;2.88;;
52866;SDS011;38739;53.324;6.862;2023-06-05T14:50:55;5.78;;;2.47;;
52866;SDS011;38739;53.324;6.862;2023-06-05T14:53:21;4.53;;;2.40;;
52866;SDS011;38739;53.324;6.862;2023-06-05T14:55:47;4.82;;;2.63;;
52866;SDS011;38739;53.324;6.862;2023-06-05T14:58:13;6.07;;;3.40;;
52866;SDS011;38739;53.324;6.862;2023-06-05T15:00:40;4.10;;;3.33;;
52866;SDS011;38739;53.324;6.862;2023-06-05T15:03:06;5.53;;;3.13;;
52866;SDS011;38739;53.324;6.862;2023-06-05T15:05:32;5.15;;;2.95;;
52866;SDS011;38739;53.324;6.862;2023-06-05T15:07:58;4.70;;;2.75;;
52866;SDS011;38739;53.324;6.862;2023-06-05T15:10:24;5.47;;;2.90;;
52866;SDS011;38739;53.324;6.862;2023-06-05T15:12:51;6.15;;;2.92;;
52866;SDS011;38739;53.324;6.862;2023-06-05T15:15:21;4.20;;;2.80;;
52866;SDS011;38739;53.324;6.862;2023-06-05T15:17:47;3.42;;;2.60;;
52866;SDS011;38739;53.324;6.862;2023-06-05T15:20:13;5.10;;;3.03;;
52866;SDS011;38739;53.324;6.862;2023-06-05T15:22:39;4.18;;;2.80;;
52866;SDS011;38739;53.324;6.862;2023-06-05T15:25:05;6.00;;;2.90;;
52866;SDS011;38739;53.324;6.862;2023-06-05T15:27:31;4.25;;;2.80;;
52866;SDS011;38739;53.324;6.862;2023-06-05T15:29:59;5.00;;;3.03;;
52866;SDS011;38739;53.324;6.862;2023-06-05T15:32:25;5.90;;;3.00;;
52866;SDS011;38739;53.324;6.862;2023-06-05T15:34:50;5.05;;;3.08;;
52866;SDS011;38739;53.324;6.862;2023-06-05T15:37:16;4.45;;;3.35;;
52866;SDS011;38739;53.324;6.862;2023-06-05T15:39:42;5.03;;;3.00;;